createdAt,value
2023-05-10T00:00:36.487Z,63.50
2023-05-10T00:01:36.641Z,63.50
2023-05-10T00:02:36.579Z,63.60
2023-05-10T00:03:36.546Z,63.50
2023-05-10T00:04:36.440Z,63.60
2023-05-10T00:05:36.425Z,63.60
2023-05-10T00:06:36.431Z,63.60
2023-05-10T00:07:36.395Z,63.60
2023-05-10T00:08:36.380Z,63.60
2023-05-10T00:09:36.377Z,63.60
2023-05-10T00:10:36.360Z,63.60
2023-05-10T00:11:36.343Z,63.60
2023-05-10T00:12:36.328Z,63.60
2023-05-10T00:13:36.320Z,63.60
2023-05-10T00:14:36.300Z,63.70
2023-05-10T00:15:36.300Z,63.70
2023-05-10T00:16:36.338Z,63.70
2023-05-10T00:17:36.315Z,63.70
2023-05-10T00:18:36.246Z,63.70
2023-05-10T00:19:36.254Z,63.70
2023-05-10T00:20:36.215Z,63.70
2023-05-10T00:21:36.207Z,63.70
2023-05-10T00:22:36.223Z,63.70
2023-05-10T00:23:36.179Z,63.70
2023-05-10T00:24:36.165Z,63.70
2023-05-10T00:25:36.154Z,63.70
2023-05-10T00:26:36.143Z,63.60
2023-05-10T00:27:36.139Z,63.70
2023-05-10T00:28:36.122Z,63.60
2023-05-10T00:29:36.100Z,63.29
2023-05-10T00:30:36.101Z,63.40
2023-05-10T00:31:36.101Z,63.40
2023-05-10T00:32:36.146Z,63.50
2023-05-10T00:33:36.048Z,63.50
2023-05-10T00:34:36.045Z,63.60
2023-05-10T00:35:36.018Z,63.60
2023-05-10T00:36:36.008Z,63.60
2023-05-10T00:37:35.993Z,63.60
2023-05-10T00:38:36.005Z,63.60
2023-05-10T00:39:35.964Z,63.50
2023-05-10T00:40:35.948Z,63.60
2023-05-10T00:41:35.938Z,63.60
2023-05-10T00:42:35.922Z,63.70
2023-05-10T00:43:35.911Z,63.70
2023-05-10T00:44:35.896Z,63.70
2023-05-10T00:45:35.884Z,63.81
2023-05-10T00:46:35.906Z,63.81
2023-05-10T00:47:35.914Z,63.81
2023-05-10T00:48:35.843Z,63.81
2023-05-10T00:49:35.829Z,63.81
2023-05-10T00:50:35.825Z,63.81
2023-05-10T00:51:35.806Z,63.81
2023-05-10T00:52:35.794Z,63.81
2023-05-10T00:53:35.778Z,63.90
2023-05-10T00:54:35.787Z,63.90
2023-05-10T00:55:35.753Z,63.90
2023-05-10T00:56:35.742Z,63.90
2023-05-10T00:57:35.729Z,63.90
2023-05-10T00:58:35.711Z,63.90
2023-05-10T00:59:35.697Z,64.01
2023-05-10T01:00:35.686Z,64.01
2023-05-10T01:01:35.679Z,64.01
2023-05-10T01:02:35.762Z,64.01
2023-05-10T01:03:35.700Z,64.01
2023-05-10T01:04:35.658Z,64.01
2023-05-10T01:05:35.637Z,64.01
2023-05-10T01:06:35.602Z,64.01
2023-05-10T01:07:35.598Z,64.01
2023-05-10T01:08:35.579Z,64.01
2023-05-10T01:09:35.567Z,64.11
2023-05-10T01:10:35.579Z,64.11
2023-05-10T01:11:35.545Z,64.11
2023-05-10T01:12:35.561Z,64.11
2023-05-10T01:13:35.522Z,64.11
2023-05-10T01:14:35.505Z,64.11
2023-05-10T01:15:35.541Z,64.11
2023-05-10T01:16:35.512Z,64.11
2023-05-10T01:17:35.485Z,64.11
2023-05-10T01:18:35.456Z,64.14
2023-05-10T01:19:35.434Z,64.21
2023-05-10T01:20:35.423Z,64.14
2023-05-10T01:21:35.412Z,64.11
2023-05-10T01:22:35.397Z,64.14
2023-05-10T01:23:35.384Z,64.11
2023-05-10T01:24:35.369Z,64.24
2023-05-10T01:25:35.361Z,64.14
2023-05-10T01:26:35.368Z,64.14
2023-05-10T01:27:35.330Z,64.11
2023-05-10T01:28:35.331Z,64.24
2023-05-10T01:29:35.303Z,64.21
2023-05-10T01:30:35.288Z,64.14
2023-05-10T01:31:35.349Z,64.24
2023-05-10T01:32:35.302Z,64.24
2023-05-10T01:33:35.249Z,64.24
2023-05-10T01:34:35.237Z,64.24
2023-05-10T01:35:35.223Z,64.24
2023-05-10T01:36:41.220Z,64.24
2023-05-10T01:37:35.196Z,64.24
2023-05-10T01:38:35.192Z,64.24
2023-05-10T01:39:35.174Z,64.24
2023-05-10T01:40:35.162Z,64.24
2023-05-10T01:41:35.140Z,64.24
2023-05-10T01:42:35.249Z,64.24
2023-05-10T01:43:35.113Z,64.34
2023-05-10T01:44:35.098Z,64.34
2023-05-10T01:45:35.089Z,64.34
2023-05-10T01:46:35.099Z,64.34
2023-05-10T01:47:35.083Z,64.34
2023-05-10T01:48:35.044Z,64.34
2023-05-10T01:49:35.039Z,64.34
2023-05-10T01:50:35.016Z,64.34
2023-05-10T01:51:35.006Z,64.34
2023-05-10T01:52:34.989Z,64.34
2023-05-10T01:53:34.980Z,64.34
2023-05-10T01:54:34.982Z,64.34
2023-05-10T01:55:34.958Z,64.45
2023-05-10T01:56:34.939Z,64.45
2023-05-10T01:57:34.945Z,64.45
2023-05-10T01:58:34.944Z,64.45
2023-05-10T01:59:34.902Z,64.45
2023-05-10T02:00:34.909Z,64.45
2023-05-10T02:01:34.873Z,64.45
2023-05-10T02:02:34.905Z,64.45
2023-05-10T02:03:34.914Z,64.45
2023-05-10T02:04:34.833Z,64.45
2023-05-10T02:05:34.820Z,64.45
2023-05-10T02:06:34.806Z,64.45
2023-05-10T02:07:34.794Z,64.45
2023-05-10T02:08:34.785Z,64.45
2023-05-10T02:09:34.770Z,64.45
2023-05-10T02:10:34.763Z,64.55
2023-05-10T02:11:34.738Z,64.55
2023-05-10T02:12:34.725Z,64.55
2023-05-10T02:13:34.711Z,64.55
2023-05-10T02:14:34.721Z,64.55
2023-05-10T02:15:34.692Z,64.55
2023-05-10T02:16:34.791Z,64.55
2023-05-10T02:17:34.695Z,64.55
2023-05-10T02:18:34.661Z,64.55
2023-05-10T02:19:34.634Z,64.55
2023-05-10T02:20:34.630Z,64.55
2023-05-10T02:21:34.607Z,64.55
2023-05-10T02:22:34.591Z,64.55
2023-05-10T02:23:34.581Z,64.55
2023-05-10T02:24:34.571Z,64.55
2023-05-10T02:25:34.556Z,64.55
2023-05-10T02:26:34.539Z,64.55
2023-05-10T02:27:34.541Z,64.55
2023-05-10T02:28:34.537Z,64.55
2023-05-10T02:29:34.535Z,64.55
2023-05-10T02:30:34.559Z,64.55
2023-05-10T02:31:34.603Z,64.55
2023-05-10T02:32:34.487Z,64.55
2023-05-10T02:33:34.474Z,64.55
2023-05-10T02:34:34.433Z,64.65
2023-05-10T02:35:34.429Z,64.65
2023-05-10T02:36:34.425Z,64.65
2023-05-10T02:37:34.394Z,64.55
2023-05-10T02:38:34.384Z,64.65
2023-05-10T02:39:34.364Z,64.65
2023-05-10T02:40:34.374Z,64.55
2023-05-10T02:41:34.348Z,64.65
2023-05-10T02:42:34.334Z,64.65
2023-05-10T02:43:34.329Z,64.65
2023-05-10T02:44:34.304Z,64.65
2023-05-10T02:45:34.289Z,64.65
2023-05-10T02:46:34.346Z,64.65
2023-05-10T02:47:34.287Z,64.65
2023-05-10T02:48:34.249Z,64.65
2023-05-10T02:49:34.234Z,64.65
2023-05-10T02:50:34.224Z,64.65
2023-05-10T02:51:34.209Z,64.65
2023-05-10T02:52:34.194Z,64.65
2023-05-10T02:53:34.181Z,64.65
2023-05-10T02:54:34.169Z,64.65
2023-05-10T02:55:34.169Z,64.65
2023-05-10T02:56:34.142Z,64.65
2023-05-10T02:57:34.128Z,64.65
2023-05-10T02:58:34.114Z,64.65
2023-05-10T02:59:34.101Z,64.65
2023-05-10T03:00:34.092Z,64.65
2023-05-10T03:01:34.115Z,64.65
2023-05-10T03:02:34.170Z,64.65
2023-05-10T03:03:34.050Z,64.65
2023-05-10T03:04:34.104Z,64.65
2023-05-10T03:05:34.022Z,64.65
2023-05-10T03:06:34.037Z,64.65
2023-05-10T03:07:33.997Z,64.65
2023-05-10T03:08:34.002Z,64.65
2023-05-10T03:09:33.971Z,64.65
2023-05-10T03:10:33.971Z,64.65
2023-05-10T03:11:33.947Z,64.75
2023-05-10T03:12:33.937Z,64.75
2023-05-10T03:13:33.993Z,64.75
2023-05-10T03:14:33.912Z,64.75
2023-05-10T03:15:33.895Z,64.75
2023-05-10T03:16:33.918Z,64.75
2023-05-10T03:17:33.903Z,64.75
2023-05-10T03:18:33.874Z,64.75
2023-05-10T03:19:33.842Z,64.75
2023-05-10T03:20:33.825Z,64.75
2023-05-10T03:21:33.808Z,64.75
2023-05-10T03:22:33.801Z,64.75
2023-05-10T03:23:33.780Z,64.75
2023-05-10T03:24:33.772Z,64.75
2023-05-10T03:25:33.753Z,64.85
2023-05-10T03:26:33.756Z,64.75
2023-05-10T03:27:33.728Z,64.75
2023-05-10T03:28:33.731Z,64.85
2023-05-10T03:29:33.700Z,64.85
2023-05-10T03:30:33.703Z,64.85
2023-05-10T03:31:33.787Z,64.85
2023-05-10T03:32:33.733Z,64.85
2023-05-10T03:33:33.652Z,64.95
2023-05-10T03:34:33.662Z,64.85
2023-05-10T03:35:33.621Z,64.85
2023-05-10T03:36:33.610Z,64.85
2023-05-10T03:37:33.593Z,64.85
2023-05-10T03:38:33.579Z,64.85
2023-05-10T03:39:33.572Z,64.95
2023-05-10T03:40:33.555Z,64.95
2023-05-10T03:41:33.550Z,64.95
2023-05-10T03:42:33.532Z,64.95
2023-05-10T03:43:33.513Z,64.95
2023-05-10T03:44:33.513Z,64.95
2023-05-10T03:45:33.486Z,65.06
2023-05-10T03:46:33.517Z,65.06
2023-05-10T03:47:33.466Z,64.95
2023-05-10T03:48:33.457Z,64.95
2023-05-10T03:49:33.432Z,65.06
2023-05-10T03:50:33.451Z,64.95
2023-05-10T03:51:33.404Z,65.06
2023-05-10T03:52:33.394Z,64.95
2023-05-10T03:53:33.381Z,65.06
2023-05-10T03:54:33.368Z,64.95
2023-05-10T03:55:33.357Z,65.06
2023-05-10T03:56:33.342Z,64.95
2023-05-10T03:57:33.334Z,65.06
2023-05-10T03:58:33.316Z,65.06
2023-05-10T03:59:33.317Z,65.06
2023-05-10T04:00:33.286Z,65.06
2023-05-10T04:01:33.293Z,65.06
2023-05-10T04:02:33.344Z,65.06
2023-05-10T04:03:33.327Z,65.06
2023-05-10T04:04:33.231Z,65.06
2023-05-10T04:05:33.222Z,65.06
2023-05-10T04:06:33.277Z,65.06
2023-05-10T04:07:33.215Z,65.06
2023-05-10T04:08:33.178Z,65.06
2023-05-10T04:09:33.164Z,65.06
2023-05-10T04:10:33.163Z,65.06
2023-05-10T04:11:33.138Z,65.06
2023-05-10T04:12:33.136Z,65.06
2023-05-10T04:13:33.111Z,65.16
2023-05-10T04:14:39.109Z,65.16
2023-05-10T04:15:33.084Z,65.16
2023-05-10T04:16:33.109Z,65.16
2023-05-10T04:17:33.089Z,65.16
2023-05-10T04:18:33.082Z,65.16
2023-05-10T04:19:33.060Z,65.26
2023-05-10T04:20:33.026Z,65.16
2023-05-10T04:21:33.005Z,65.26
2023-05-10T04:22:33.041Z,65.26
2023-05-10T04:23:32.973Z,65.26
2023-05-10T04:24:32.964Z,65.26
2023-05-10T04:25:32.949Z,65.26
2023-05-10T04:26:32.947Z,65.16
2023-05-10T04:27:32.921Z,65.16
2023-05-10T04:28:32.913Z,65.16
2023-05-10T04:29:32.896Z,65.16
2023-05-10T04:30:32.907Z,65.16
2023-05-10T04:31:32.870Z,65.16
2023-05-10T04:32:32.887Z,65.16
2023-05-10T04:33:32.841Z,65.16
2023-05-10T04:34:32.828Z,65.26
2023-05-10T04:35:32.816Z,65.16
2023-05-10T04:36:32.802Z,65.16
2023-05-10T04:37:38.828Z,65.16
2023-05-10T04:38:32.775Z,65.16
2023-05-10T04:39:32.762Z,65.26
2023-05-10T04:40:32.750Z,65.26
2023-05-10T04:41:32.733Z,65.26
2023-05-10T04:42:32.724Z,65.26
2023-05-10T04:43:32.706Z,65.26
2023-05-10T04:44:32.696Z,65.26
2023-05-10T04:45:32.677Z,65.26
2023-05-10T04:46:32.700Z,65.26
2023-05-10T04:47:32.682Z,65.26
2023-05-10T04:48:32.647Z,65.26
2023-05-10T04:49:32.626Z,65.26
2023-05-10T04:50:32.616Z,65.26
2023-05-10T04:51:32.612Z,65.26
2023-05-10T04:52:32.592Z,65.26
2023-05-10T04:53:32.608Z,65.26
2023-05-10T04:54:32.563Z,65.26
2023-05-10T04:55:32.544Z,65.26
2023-05-10T04:56:32.537Z,65.36
2023-05-10T04:57:32.520Z,65.36
2023-05-10T04:58:32.506Z,65.26
2023-05-10T04:59:32.496Z,65.26
2023-05-10T05:00:32.478Z,65.26
2023-05-10T05:01:32.534Z,65.26
2023-05-10T05:02:32.524Z,65.26
2023-05-10T05:03:32.520Z,65.26
2023-05-10T05:04:32.432Z,65.26
2023-05-10T05:05:32.408Z,65.26
2023-05-10T05:06:32.402Z,65.26
2023-05-10T05:07:32.386Z,65.26
2023-05-10T05:08:32.381Z,65.36
2023-05-10T05:09:32.390Z,65.36
2023-05-10T05:10:32.356Z,65.36
2023-05-10T05:11:32.331Z,65.26
2023-05-10T05:12:32.322Z,65.36
2023-05-10T05:13:32.373Z,65.36
2023-05-10T05:14:32.302Z,65.36
2023-05-10T05:15:32.280Z,65.36
2023-05-10T05:16:32.344Z,65.36
2023-05-10T05:17:32.298Z,65.36
2023-05-10T05:18:32.250Z,65.36
2023-05-10T05:19:32.228Z,65.36
2023-05-10T05:20:32.217Z,65.36
2023-05-10T05:21:32.202Z,65.36
2023-05-10T05:22:32.190Z,65.36
2023-05-10T05:23:32.187Z,65.36
2023-05-10T05:24:32.162Z,65.36
2023-05-10T05:25:32.172Z,65.36
2023-05-10T05:26:32.139Z,65.36
2023-05-10T05:27:32.121Z,65.36
2023-05-10T05:28:32.112Z,65.36
2023-05-10T05:29:32.098Z,65.36
2023-05-10T05:30:32.083Z,65.36
2023-05-10T05:31:32.114Z,65.36
2023-05-10T05:32:32.076Z,65.36
2023-05-10T05:33:32.040Z,65.36
2023-05-10T05:34:32.032Z,65.36
2023-05-10T05:35:32.019Z,65.36
2023-05-10T05:36:32.006Z,65.36
2023-05-10T05:37:31.989Z,65.36
2023-05-10T05:38:31.996Z,65.36
2023-05-10T05:39:31.981Z,65.26
2023-05-10T05:40:31.950Z,65.26
2023-05-10T05:41:31.965Z,65.36
2023-05-10T05:42:31.932Z,65.26
2023-05-10T05:43:31.906Z,65.26
2023-05-10T05:44:31.902Z,65.26
2023-05-10T05:45:31.909Z,65.26
2023-05-10T05:46:31.866Z,65.26
2023-05-10T05:47:31.879Z,65.26
2023-05-10T05:48:31.846Z,65.26
2023-05-10T05:49:31.834Z,65.26
2023-05-10T05:50:31.815Z,65.26
2023-05-10T05:51:31.802Z,65.26
2023-05-10T05:52:31.797Z,65.26
2023-05-10T05:53:31.776Z,65.26
2023-05-10T05:54:31.765Z,65.26
2023-05-10T05:55:31.750Z,65.26
2023-05-10T05:56:31.748Z,65.26
2023-05-10T05:57:31.757Z,65.26
2023-05-10T05:58:31.717Z,65.26
2023-05-10T05:59:31.694Z,65.26
2023-05-10T06:00:31.684Z,65.26
2023-05-10T06:01:31.678Z,65.26
2023-05-10T06:02:31.780Z,65.26
2023-05-10T06:03:31.840Z,65.26
2023-05-10T06:04:31.692Z,65.26
2023-05-10T06:05:31.623Z,65.26
2023-05-10T06:06:31.606Z,65.36
2023-05-10T06:07:31.595Z,65.26
2023-05-10T06:08:31.585Z,65.26
2023-05-10T06:09:31.562Z,65.36
2023-05-10T06:10:31.585Z,65.36
2023-05-10T06:11:31.538Z,65.36
2023-05-10T06:12:31.521Z,65.36
2023-05-10T06:13:31.580Z,65.36
2023-05-10T06:14:31.498Z,65.36
2023-05-10T06:15:31.484Z,65.46
2023-05-10T06:16:31.483Z,65.46
2023-05-10T06:17:31.482Z,65.46
2023-05-10T06:18:31.449Z,65.57
2023-05-10T06:19:31.430Z,65.57
2023-05-10T06:20:31.424Z,65.57
2023-05-10T06:21:31.403Z,65.57
2023-05-10T06:22:31.393Z,65.57
2023-05-10T06:23:37.383Z,65.66
2023-05-10T06:24:31.368Z,65.66
2023-05-10T06:25:31.357Z,65.57
2023-05-10T06:26:31.343Z,65.66
2023-05-10T06:27:31.326Z,65.66
2023-05-10T06:28:31.317Z,65.66
2023-05-10T06:29:31.343Z,65.66
2023-05-10T06:30:31.288Z,65.77
2023-05-10T06:31:31.292Z,65.77
2023-05-10T06:32:31.305Z,65.77
2023-05-10T06:33:31.247Z,65.77
2023-05-10T06:34:31.233Z,65.66
2023-05-10T06:35:31.219Z,65.66
2023-05-10T06:36:31.206Z,65.57
2023-05-10T06:37:31.206Z,65.66
2023-05-10T06:38:31.178Z,65.66
2023-05-10T06:39:31.165Z,65.77
2023-05-10T06:40:31.156Z,65.90
2023-05-10T06:41:31.141Z,65.77
2023-05-10T06:42:31.128Z,65.80
2023-05-10T06:43:31.117Z,65.77
2023-05-10T06:44:31.103Z,65.66
2023-05-10T06:45:31.131Z,65.77
2023-05-10T06:46:31.097Z,65.97
2023-05-10T06:47:31.101Z,66.07
2023-05-10T06:48:31.054Z,65.87
2023-05-10T06:49:31.033Z,65.87
2023-05-10T06:50:31.017Z,65.77
2023-05-10T06:51:31.003Z,65.87
2023-05-10T06:52:30.991Z,65.87
2023-05-10T06:53:30.986Z,65.87
2023-05-10T06:54:30.984Z,65.97
2023-05-10T06:55:30.958Z,65.97
2023-05-10T06:56:30.938Z,65.97
2023-05-10T06:57:32.261Z,66.07
2023-05-10T06:58:30.918Z,66.18
2023-05-10T06:59:30.959Z,66.68
2023-05-10T07:00:30.907Z,66.88
2023-05-10T07:01:30.940Z,66.99
2023-05-10T07:02:30.882Z,67.19
2023-05-10T07:03:30.845Z,66.99
2023-05-10T07:04:30.868Z,66.79
2023-05-10T07:05:30.871Z,66.79
2023-05-10T07:06:33.748Z,66.68
2023-05-10T07:07:30.796Z,66.68
2023-05-10T07:08:30.778Z,68.21
2023-05-10T07:09:30.765Z,67.80
2023-05-10T07:10:30.751Z,67.80
2023-05-10T07:11:30.742Z,68.01
2023-05-10T07:12:30.744Z,68.21
2023-05-10T07:13:30.747Z,68.41
2023-05-10T07:14:30.698Z,68.51
2023-05-10T07:15:30.693Z,68.51
2023-05-10T07:16:30.706Z,68.41
2023-05-10T07:17:30.846Z,68.10
2023-05-10T07:18:30.694Z,68.01
2023-05-10T07:19:30.640Z,68.41
2023-05-10T07:20:30.619Z,68.41
2023-05-10T07:21:30.677Z,68.21
2023-05-10T07:22:30.590Z,68.21
2023-05-10T07:23:30.589Z,68.10
2023-05-10T07:24:30.566Z,68.41
2023-05-10T07:25:30.557Z,68.41
2023-05-10T07:26:30.538Z,68.41
2023-05-10T07:27:30.533Z,68.51
2023-05-10T07:28:30.512Z,68.51
2023-05-10T07:29:30.502Z,68.51
2023-05-10T07:30:30.592Z,68.31
2023-05-10T07:31:30.542Z,68.51
2023-05-10T07:32:30.562Z,68.51
2023-05-10T07:33:30.482Z,68.61
2023-05-10T07:34:30.432Z,68.61
2023-05-10T07:35:30.415Z,68.51
2023-05-10T07:36:30.404Z,68.71
2023-05-10T07:37:30.392Z,68.61
2023-05-10T07:38:30.375Z,68.61
2023-05-10T07:39:30.363Z,68.61
2023-05-10T07:40:30.348Z,68.71
2023-05-10T07:41:30.334Z,68.61
2023-05-10T07:42:30.327Z,68.61
2023-05-10T07:43:30.329Z,68.71
2023-05-10T07:44:30.300Z,68.82
2023-05-10T07:45:30.293Z,68.92
2023-05-10T07:46:30.383Z,69.12
2023-05-10T07:47:30.271Z,69.12
2023-05-10T07:48:30.235Z,69.02
2023-05-10T07:49:30.266Z,68.92
2023-05-10T07:50:30.223Z,69.02
2023-05-10T07:51:30.200Z,69.22
2023-05-10T07:52:30.185Z,69.12
2023-05-10T07:53:30.174Z,69.43
2023-05-10T07:54:30.162Z,69.94
2023-05-10T07:55:30.151Z,70.14
2023-05-10T07:56:30.158Z,69.94
2023-05-10T07:57:30.121Z,69.83
2023-05-10T07:58:30.103Z,70.04
2023-05-10T07:59:30.100Z,70.00
2023-05-10T08:00:30.079Z,70.24
2023-05-10T08:01:30.067Z,70.34
2023-05-10T08:02:30.110Z,70.44
2023-05-10T08:03:30.176Z,70.55
2023-05-10T08:04:30.057Z,70.14
2023-05-10T08:05:30.038Z,70.14
2023-05-10T08:06:30.005Z,70.04
2023-05-10T08:07:29.995Z,70.11
2023-05-10T08:08:29.970Z,70.21
2023-05-10T08:09:29.959Z,69.70
2023-05-10T08:10:29.949Z,69.50
2023-05-10T08:11:29.936Z,69.39
2023-05-10T08:12:29.935Z,69.50
2023-05-10T08:13:29.910Z,70.00
2023-05-10T08:14:29.890Z,69.09
2023-05-10T08:15:29.878Z,68.99
2023-05-10T08:16:30.055Z,68.28
2023-05-10T08:17:29.886Z,68.38
2023-05-10T08:18:29.856Z,68.38
2023-05-10T08:19:29.832Z,68.18
2023-05-10T08:20:29.848Z,68.28
2023-05-10T08:21:29.863Z,68.18
2023-05-10T08:22:29.792Z,68.07
2023-05-10T08:23:29.776Z,68.07
2023-05-10T08:24:29.763Z,68.07
2023-05-10T08:25:29.749Z,68.58
2023-05-10T08:26:29.740Z,69.09
2023-05-10T08:27:29.724Z,69.19
2023-05-10T08:28:29.709Z,68.68
2023-05-10T08:29:32.873Z,68.89
2023-05-10T08:30:30.721Z,68.58
2023-05-10T08:31:29.790Z,68.68
2023-05-10T08:32:29.681Z,69.19
2023-05-10T08:33:29.673Z,68.78
2023-05-10T08:34:29.629Z,68.78
2023-05-10T08:35:29.616Z,68.68
2023-05-10T08:36:29.601Z,68.68
2023-05-10T08:37:29.619Z,68.68
2023-05-10T08:38:29.572Z,68.78
2023-05-10T08:39:30.931Z,68.99
2023-05-10T08:40:29.550Z,68.89
2023-05-10T08:41:29.541Z,68.89
2023-05-10T08:42:29.526Z,69.09
2023-05-10T08:43:29.581Z,69.09
2023-05-10T08:44:29.496Z,69.09
2023-05-10T08:45:29.500Z,69.19
2023-05-10T08:46:29.533Z,69.29
2023-05-10T08:47:29.501Z,69.39
2023-05-10T08:48:29.445Z,69.50
2023-05-10T08:49:29.434Z,69.80
2023-05-10T08:50:29.422Z,69.80
2023-05-10T08:51:29.408Z,69.80
2023-05-10T08:52:29.405Z,69.50
2023-05-10T08:53:29.412Z,69.80
2023-05-10T08:54:29.367Z,69.80
2023-05-10T08:55:29.356Z,69.70
2023-05-10T08:56:29.351Z,69.70
2023-05-10T08:57:29.333Z,70.00
2023-05-10T08:58:29.331Z,69.90
2023-05-10T08:59:29.309Z,70.31
2023-05-10T09:00:29.287Z,70.00
2023-05-10T09:01:29.386Z,70.00
2023-05-10T09:02:29.316Z,69.90
2023-05-10T09:03:29.254Z,70.00
2023-05-10T09:04:29.386Z,69.80
2023-05-10T09:05:29.275Z,69.70
2023-05-10T09:06:29.217Z,69.80
2023-05-10T09:07:29.200Z,69.80
2023-05-10T09:08:29.187Z,69.80
2023-05-10T09:09:29.211Z,69.60
2023-05-10T09:10:29.182Z,69.80
2023-05-10T09:11:35.154Z,69.80
2023-05-10T09:12:29.134Z,69.50
2023-05-10T09:13:29.121Z,69.39
2023-05-10T09:14:29.105Z,69.39
2023-05-10T09:15:29.108Z,69.50
2023-05-10T09:16:29.107Z,69.39
2023-05-10T09:17:29.152Z,69.29
2023-05-10T09:18:29.088Z,69.09
2023-05-10T09:19:29.048Z,69.09
2023-05-10T09:20:29.035Z,69.09
2023-05-10T09:21:29.014Z,69.19
2023-05-10T09:22:29.003Z,69.50
2023-05-10T09:23:28.990Z,69.80
2023-05-10T09:24:28.972Z,69.70
2023-05-10T09:25:29.089Z,69.50
2023-05-10T09:26:28.946Z,69.80
2023-05-10T09:27:28.941Z,69.60
2023-05-10T09:28:28.921Z,69.60
2023-05-10T09:29:28.916Z,69.77
2023-05-10T09:30:28.892Z,69.50
2023-05-10T09:31:29.007Z,69.56
2023-05-10T09:32:28.880Z,69.56
2023-05-10T09:33:28.859Z,69.47
2023-05-10T09:34:28.847Z,69.47
2023-05-10T09:35:29.831Z,69.47
2023-05-10T09:36:28.821Z,69.47
2023-05-10T09:37:28.798Z,69.47
2023-05-10T09:38:28.791Z,69.56
2023-05-10T09:39:28.779Z,69.67
2023-05-10T09:40:28.767Z,69.97
2023-05-10T09:41:28.779Z,70.28
2023-05-10T09:42:28.735Z,70.78
2023-05-10T09:43:28.730Z,70.68
2023-05-10T09:44:28.704Z,70.89
2023-05-10T09:45:28.705Z,70.48
2023-05-10T09:46:28.717Z,70.78
2023-05-10T09:47:28.709Z,70.98
2023-05-10T09:48:28.662Z,71.09
2023-05-10T09:49:28.641Z,70.98
2023-05-10T09:50:28.624Z,70.78
2023-05-10T09:51:28.616Z,70.68
2023-05-10T09:52:28.602Z,70.68
2023-05-10T09:53:28.589Z,70.48
2023-05-10T09:54:28.575Z,70.78
2023-05-10T09:55:28.563Z,71.60
2023-05-10T09:56:28.552Z,72.00
2023-05-10T09:57:28.570Z,72.00
2023-05-10T09:58:28.521Z,72.21
2023-05-10T09:59:28.525Z,71.70
2023-05-10T10:00:28.496Z,72.00
2023-05-10T10:01:28.524Z,72.00
2023-05-10T10:02:28.503Z,71.80
2023-05-10T10:03:30.333Z,72.71
2023-05-10T10:04:28.509Z,72.31
2023-05-10T10:05:28.429Z,72.21
2023-05-10T10:06:30.448Z,72.00
2023-05-10T10:07:28.418Z,71.90
2023-05-10T10:08:28.390Z,72.10
2023-05-10T10:09:28.377Z,72.10
2023-05-10T10:10:28.381Z,72.51
2023-05-10T10:11:28.352Z,72.47
2023-05-10T10:12:28.341Z,72.47
2023-05-10T10:13:28.354Z,72.38
2023-05-10T10:14:28.314Z,72.47
2023-05-10T10:15:28.313Z,72.58
2023-05-10T10:16:28.407Z,72.07
2023-05-10T10:17:28.353Z,71.87
2023-05-10T10:18:28.412Z,71.77
2023-05-10T10:19:28.253Z,72.07
2023-05-10T10:20:28.233Z,72.17
2023-05-10T10:21:28.223Z,72.47
2023-05-10T10:22:28.205Z,71.77
2023-05-10T10:23:28.279Z,71.97
2023-05-10T10:24:28.183Z,72.68
2023-05-10T10:25:28.183Z,73.08
2023-05-10T10:26:28.160Z,73.08
2023-05-10T10:27:34.147Z,72.78
2023-05-10T10:28:28.468Z,72.27
2023-05-10T10:29:28.140Z,72.47
2023-05-10T10:30:28.101Z,72.68
2023-05-10T10:31:28.150Z,72.98
2023-05-10T10:32:28.156Z,72.98
2023-05-10T10:33:59.066Z,72.58
2023-05-10T10:34:59.064Z,72.98
2023-05-10T10:35:59.084Z,72.78
2023-05-10T10:36:59.024Z,72.68
2023-05-10T10:37:59.022Z,72.58
2023-05-10T10:38:58.996Z,73.08
2023-05-10T10:39:58.995Z,72.68
2023-05-10T10:40:58.977Z,72.88
2023-05-10T10:41:58.955Z,72.47
2023-05-10T10:42:58.940Z,72.07
2023-05-10T10:43:58.930Z,72.27
2023-05-10T10:44:58.948Z,72.07
2023-05-10T10:45:58.902Z,72.17
2023-05-10T10:46:58.934Z,71.77
2023-05-10T10:47:58.920Z,72.27
2023-05-10T10:48:58.863Z,71.97
2023-05-10T10:49:58.864Z,72.07
2023-05-10T10:50:58.848Z,71.97
2023-05-10T10:51:58.824Z,71.87
2023-05-10T10:52:58.843Z,72.07
2023-05-10T10:53:58.797Z,71.97
2023-05-10T10:54:58.812Z,71.87
2023-05-10T10:55:58.772Z,71.77
2023-05-10T10:56:58.759Z,71.87
2023-05-10T10:57:58.745Z,71.87
2023-05-10T10:58:58.726Z,71.87
2023-05-10T10:59:58.715Z,71.77
2023-05-10T11:00:58.756Z,72.07
2023-05-10T11:01:58.692Z,72.10
2023-05-10T11:02:58.700Z,72.27
2023-05-10T11:03:58.667Z,72.07
2023-05-10T11:04:58.654Z,72.27
2023-05-10T11:05:58.638Z,72.58
2023-05-10T11:06:58.625Z,72.17
2023-05-10T11:07:58.623Z,72.17
2023-05-10T11:08:58.600Z,72.58
2023-05-10T11:09:58.587Z,72.38
2023-05-10T11:10:58.571Z,71.87
2023-05-10T11:11:58.563Z,71.46
2023-05-10T11:12:58.543Z,71.26
2023-05-10T11:13:58.529Z,71.26
2023-05-10T11:14:58.533Z,71.46
2023-05-10T11:15:58.509Z,71.87
2023-05-10T11:16:58.562Z,71.26
2023-05-10T11:17:58.521Z,71.16
2023-05-10T11:19:01.556Z,70.95
2023-05-10T11:19:58.450Z,70.65
2023-05-10T11:20:58.438Z,70.55
2023-05-10T11:21:58.422Z,70.45
2023-05-10T11:22:58.414Z,70.24
2023-05-10T11:23:58.464Z,71.05
2023-05-10T11:24:58.383Z,70.45
2023-05-10T11:25:58.384Z,70.11
2023-05-10T11:26:58.357Z,69.70
2023-05-10T11:27:58.342Z,69.60
2023-05-10T11:28:58.331Z,70.01
2023-05-10T11:29:58.316Z,70.41
2023-05-10T11:30:58.337Z,70.11
2023-05-10T11:31:58.288Z,70.11
2023-05-10T11:32:58.374Z,70.01
2023-05-10T11:33:58.269Z,70.11
2023-05-10T11:34:58.254Z,70.01
2023-05-10T11:35:58.239Z,70.21
2023-05-10T11:36:58.236Z,70.52
2023-05-10T11:37:58.210Z,70.41
2023-05-10T11:38:58.206Z,70.62
2023-05-10T11:39:58.185Z,70.72
2023-05-10T11:40:58.174Z,70.21
2023-05-10T11:41:58.186Z,70.01
2023-05-10T11:42:58.148Z,70.21
2023-05-10T11:43:58.136Z,70.52
2023-05-10T11:44:58.122Z,69.97
2023-05-10T11:45:58.166Z,69.77
2023-05-10T11:46:58.097Z,69.87
2023-05-10T11:47:58.103Z,70.08
2023-05-10T11:48:58.110Z,70.28
2023-05-10T11:49:58.060Z,70.52
2023-05-10T11:50:58.111Z,70.41
2023-05-10T11:51:58.027Z,70.28
2023-05-10T11:52:58.021Z,70.58
2023-05-10T11:53:58.258Z,70.38
2023-05-10T11:54:57.990Z,70.08
2023-05-10T11:55:57.986Z,69.90
2023-05-10T11:56:57.965Z,69.81
2023-05-10T11:57:57.947Z,69.70
2023-05-10T11:58:58.058Z,69.77
2023-05-10T11:59:57.920Z,69.47
2023-05-10T12:00:57.911Z,69.47
2023-05-10T12:01:57.919Z,69.97
2023-05-10T12:02:57.972Z,69.77
2023-05-10T12:03:58.156Z,70.08
2023-05-10T12:04:57.984Z,70.08
2023-05-10T12:05:57.842Z,69.97
2023-05-10T12:06:57.864Z,70.08
2023-05-10T12:07:57.839Z,69.67
2023-05-10T12:08:57.807Z,69.57
2023-05-10T12:09:57.785Z,69.97
2023-05-10T12:10:57.776Z,69.97
2023-05-10T12:11:57.773Z,69.77
2023-05-10T12:12:57.749Z,69.87
2023-05-10T12:13:57.855Z,69.87
2023-05-10T12:14:57.724Z,69.97
2023-05-10T12:15:57.786Z,69.67
2023-05-10T12:16:57.698Z,69.87
2023-05-10T12:17:57.727Z,70.28
2023-05-10T12:18:57.761Z,70.28
2023-05-10T12:19:57.663Z,70.08
2023-05-10T12:20:57.664Z,69.97
2023-05-10T12:21:57.630Z,70.28
2023-05-10T12:22:59.735Z,69.57
2023-05-10T12:23:57.606Z,69.47
2023-05-10T12:24:57.590Z,70.08
2023-05-10T12:25:57.576Z,69.77
2023-05-10T12:26:57.569Z,69.67
2023-05-10T12:27:57.575Z,69.67
2023-05-10T12:28:57.544Z,69.57
2023-05-10T12:29:57.530Z,69.47
2023-05-10T12:30:57.517Z,69.37
2023-05-10T12:31:57.554Z,69.16
2023-05-10T12:32:57.541Z,69.47
2023-05-10T12:33:57.479Z,69.26
2023-05-10T12:34:57.460Z,69.06
2023-05-10T12:35:57.446Z,69.26
2023-05-10T12:36:57.467Z,69.16
2023-05-10T12:37:57.422Z,69.26
2023-05-10T12:38:57.409Z,69.47
2023-05-10T12:39:57.399Z,69.37
2023-05-10T12:40:57.411Z,69.57
2023-05-10T12:41:57.370Z,69.47
2023-05-10T12:42:57.406Z,69.37
2023-05-10T12:43:57.341Z,69.57
2023-05-10T12:44:57.331Z,69.37
2023-05-10T12:45:57.372Z,69.37
2023-05-10T12:46:57.302Z,69.47
2023-05-10T12:47:57.305Z,69.26
2023-05-10T12:49:07.693Z,69.37
2023-05-10T12:49:57.264Z,69.16
2023-05-10T12:50:57.252Z,69.26
2023-05-10T12:51:57.235Z,69.37
2023-05-10T12:52:57.252Z,69.16